Time;durP1;ratioP1;P1;durP2;ratioP2;P2;SDS_P1;SDS_P2;PMS_P1;PMS_P2;Temp;Humidity;BMP_temperature;BMP_pressure;BME280_temperature;BME280_humidity;BME280_pressure;Samples;Min_cycle;Max_cycle;Signal;HPM_P1;HPM_P2
2023/04/15 00:01:39;;;;;;;7.00;3.67;;;;;;;9.49;53.13;97804.53;7058433;28;20208;-86
2023/04/15 00:05:00;;;;;;;5.27;3.93;;;;;;;9.88;52.78;97822.94;7074373;28;20277;-86
2023/04/15 00:08:22;;;;;;;6.03;4.23;;;;;;;9.85;53.18;97817.16;7073767;28;20294;-87
2023/04/15 00:11:44;;;;;;;7.33;4.07;;;;;;;9.93;52.14;97800.72;7074179;28;20208;-87
2023/04/15 00:15:09;;;;;;;5.50;4.30;;;;;;;9.13;53.25;97797.44;7076527;28;20252;-86
2023/04/15 00:18:30;;;;;;;4.47;4.07;;;;;;;8.93;54.23;97811.03;7077070;27;20224;-86
2023/04/15 00:21:52;;;;;;;6.03;4.00;;;;;;;8.78;55.11;97791.69;7076514;28;20277;-86
2023/04/15 00:25:14;;;;;;;4.37;3.47;;;;;;;8.91;55.14;97758.53;7075465;28;20223;-86
2023/04/15 00:28:35;;;;;;;5.27;4.10;;;;;;;9.39;53.54;97769.22;7075971;28;20260;-86
2023/04/15 00:31:59;;;;;;;3.97;3.53;;;;;;;9.42;52.37;97738.38;7075470;28;20208;-86
2023/04/15 00:35:24;;;;;;;5.37;3.53;;;;;;;9.21;52.78;97736.94;7076213;28;20281;-86
2023/04/15 00:38:46;;;;;;;5.70;3.70;;;;;;;8.51;53.30;97668.56;7075108;28;20184;-85
2023/04/15 00:42:07;;;;;;;6.63;3.77;;;;;;;8.89;53.66;97736.44;7073540;27;20223;-86
2023/04/15 00:45:29;;;;;;;5.33;4.10;;;;;;;8.76;54.61;97763.41;7073462;28;20265;-86
2023/04/15 00:48:52;;;;;;;5.13;3.67;;;;;;;9.12;54.47;97750.88;7074583;28;20197;-86
2023/04/15 00:52:14;;;;;;;6.73;3.90;;;;;;;9.30;54.25;97794.78;7074506;28;20204;-85
2023/04/15 00:55:36;;;;;;;4.00;3.70;;;;;;;9.13;53.57;97734.53;7074268;28;20206;-86
2023/04/15 00:58:59;;;;;;;4.43;3.70;;;;;;;9.05;53.41;97724.06;7073269;28;20661;-85
2023/04/15 01:02:21;;;;;;;4.33;3.90;;;;;;;8.91;53.27;97729.78;7070808;28;20228;-85
2023/04/15 01:05:44;;;;;;;5.77;3.97;;;;;;;8.97;53.67;97752.28;7048084;28;20201;-85
2023/04/15 01:09:06;;;;;;;4.50;4.10;;;;;;;8.73;54.02;97736.97;7043015;28;20215;-86
2023/04/15 01:12:28;;;;;;;6.80;4.03;;;;;;;8.41;54.37;97717.38;7045655;28;20248;-86
2023/04/15 01:15:50;;;;;;;3.90;3.60;;;;;;;8.68;55.19;97803.97;7046507;28;20265;-85
2023/04/15 01:19:21;;;;;;;6.23;3.90;;;;;;;8.52;55.17;97710.47;7046189;28;20219;-85
2023/04/15 01:23:03;;;;;;;5.03;4.53;;;;;;;8.45;54.49;97681.00;7068134;28;20220;-85
2023/04/15 01:26:27;;;;;;;5.03;4.27;;;;;;;8.82;54.17;97715.00;7074290;28;20207;-86
2023/04/15 01:29:53;;;;;;;4.23;3.83;;;;;;;8.18;54.76;97652.66;7073068;28;20199;-85
2023/04/15 01:33:28;;;;;;;5.23;4.30;;;;;;;8.22;54.77;97675.41;7072582;28;20234;-86
2023/04/15 01:36:50;;;;;;;6.43;4.03;;;;;;;8.12;55.32;97682.22;7073541;28;20276;-87
2023/04/15 01:40:12;;;;;;;5.20;3.97;;;;;;;7.82;55.56;97662.41;7072991;28;20220;-86
2023/04/15 01:43:36;;;;;;;5.23;3.60;;;;;;;7.98;56.00;97713.72;7072049;28;20871;-86
2023/04/15 01:46:58;;;;;;;4.60;4.00;;;;;;;8.21;56.57;97766.88;7073393;28;20215;-85
2023/04/15 01:54:08;;;;;;;6.30;4.00;;;;;;;8.54;55.24;97730.72;7044688;28;20244;-86
2023/04/15 02:53:57;;;;;;;6.20;4.57;;;;;;;7.24;55.93;97683.09;6894070;28;20216;-86
2023/04/15 03:06:41;;;;;;;4.73;3.97;;;;;;;7.31;55.69;97654.41;6871277;28;20203;-86
2023/04/15 03:23:04;;;;;;;5.87;4.57;;;;;;;7.94;57.19;97757.28;6897710;28;20245;-86
2023/04/15 03:26:28;;;;;;;5.30;4.43;;;;;;;7.68;56.25;97648.25;6977678;28;20210;-86
2023/04/15 03:29:50;;;;;;;5.23;4.57;;;;;;;8.62;56.24;97800.31;6979301;28;20219;-85
2023/04/15 03:33:15;;;;;;;7.90;4.87;;;;;;;7.28;56.41;97622.69;6980892;28;20262;-86
2023/04/15 03:41:06;;;;;;;5.33;4.20;;;;;;;8.75;55.91;97783.25;7039266;28;20223;-87
2023/04/15 03:52:43;;;;;;;6.77;4.03;;;;;;;8.66;54.81;97744.28;7070839;28;20612;-86
2023/04/15 03:56:06;;;;;;;6.27;4.53;;;;;;;7.91;54.58;97632.41;7071128;28;20207;-85
2023/04/15 03:59:28;;;;;;;10.63;4.90;;;;;;;8.41;55.24;97736.19;7071788;28;20195;-86
2023/04/15 04:02:49;;;;;;;6.87;5.37;;;;;;;7.80;55.89;97702.88;7053766;28;20692;-87
2023/04/15 04:06:11;;;;;;;6.97;4.53;;;;;;;8.12;56.31;97742.13;7070048;28;20208;-86
2023/04/15 04:09:33;;;;;;;5.67;4.90;;;;;;;8.20;55.53;97725.78;7072342;28;20201;-86
2023/04/15 04:16:32;;;;;;;7.37;5.27;;;;;;;8.64;55.18;97740.97;7071266;28;20256;-86
2023/04/15 04:19:53;;;;;;;6.20;4.63;;;;;;;8.45;54.46;97699.81;7072864;28;20643;-88
2023/04/15 04:23:15;;;;;;;6.40;4.77;;;;;;;8.60;54.78;97764.75;7073999;28;20236;-86
2023/04/15 04:26:42;;;;;;;8.80;4.90;;;;;;;8.31;54.05;97705.50;7080831;27;20204;-86
2023/04/15 04:47:20;;;;;;;7.57;5.37;;;;;;;7.83;53.49;97664.88;6925967;28;20212;-86
2023/04/15 04:50:48;;;;;;;9.33;5.17;;;;;;;8.39;53.55;97740.97;6932090;28;20207;-86
2023/04/15 04:54:16;;;;;;;8.30;4.30;;;;;;;8.04;53.34;97687.88;6934318;28;20219;-86
2023/04/15 04:57:41;;;;;;;10.13;5.10;;;;;;;7.71;54.26;97671.16;6961281;28;20263;-85
2023/04/15 05:01:06;;;;;;;6.63;4.70;;;;;;;8.57;54.12;97808.19;6961641;28;20245;-87
2023/04/15 05:04:30;;;;;;;6.37;4.40;;;;;;;7.62;54.64;97709.97;6955834;28;20238;-87
2023/04/15 05:07:52;;;;;;;7.37;4.53;;;;;;;8.66;54.28;97812.25;6941032;28;20210;-85
2023/04/15 05:11:13;;;;;;;5.90;4.53;;;;;;;8.62;53.23;97761.88;7001601;28;20218;-84
2023/04/15 05:14:35;;;;;;;7.10;4.93;;;;;;;9.03;53.19;97806.00;7043153;28;20255;-83
2023/04/15 05:17:57;;;;;;;6.83;4.67;;;;;;;8.62;52.55;97738.53;7058952;28;20208;-83
2023/04/15 05:21:20;;;;;;;5.93;5.00;;;;;;;9.14;52.41;97807.94;7055120;28;20201;-83
2023/04/15 05:24:42;;;;;;;7.17;6.00;;;;;;;9.10;52.47;97810.25;7055589;27;20246;-83
2023/04/15 05:28:03;;;;;;;8.57;4.90;;;;;;;8.97;52.18;97806.03;7043059;28;20264;-83
2023/04/15 05:31:25;;;;;;;8.93;5.00;;;;;;;9.01;52.45;97786.56;7052632;28;20231;-86
2023/04/15 05:34:47;;;;;;;12.67;4.93;;;;;;;9.13;52.11;97793.69;7038644;28;20228;-84
2023/04/15 05:38:09;;;;;;;6.80;4.73;;;;;;;9.50;50.89;97813.44;7059969;28;20204;-85
2023/04/15 05:41:31;;;;;;;5.90;4.30;;;;;;;9.40;50.79;97791.59;7065785;28;20297;-84
2023/04/15 05:44:52;;;;;;;7.07;5.33;;;;;;;8.87;51.90;97827.19;7067015;27;20235;-83
2023/04/15 05:48:14;;;;;;;7.93;5.03;;;;;;;9.17;51.72;97799.44;7047513;27;20233;-83
2023/04/15 05:51:36;;;;;;;6.47;5.70;;;;;;;9.56;51.05;97809.84;7041382;28;20227;-83
2023/04/15 05:54:59;;;;;;;6.47;4.80;;;;;;;10.07;49.76;97795.00;7040286;28;20221;-83
2023/04/15 05:58:20;;;;;;;9.97;6.10;;;;;;;10.38;49.32;97845.13;7038968;28;20824;-83
2023/04/15 06:01:42;;;;;;;9.77;5.70;;;;;;;10.77;48.54;97837.34;7036050;28;20338;-84
2023/04/15 06:05:08;;;;;;;7.90;5.53;;;;;;;10.91;48.57;97829.84;7062864;28;20239;-82
2023/04/15 06:08:30;;;;;;;8.13;5.83;;;;;;;10.81;48.16;97805.34;7062445;28;20326;-85
2023/04/15 06:12:01;;;;;;;7.00;5.37;;;;;;;10.87;48.54;97834.91;7063406;28;20236;-86
2023/04/15 06:15:23;;;;;;;7.10;4.90;;;;;;;10.14;48.13;97719.47;7062907;28;20192;-89
2023/04/15 06:18:47;;;;;;;6.90;5.00;;;;;;;10.69;47.64;97777.53;7064434;28;20197;-88
2023/04/15 06:22:12;;;;;;;5.17;4.67;;;;;;;11.22;47.01;97841.19;7048460;28;20205;-88
2023/04/15 06:34:08;;;;;;;7.43;4.80;;;;;;;10.86;48.15;97821.66;7008025;22;20234;-81
2023/04/15 06:37:33;;;;;;;5.93;3.97;;;;;;;11.34;47.23;97843.91;6983457;28;20206;-82
2023/04/15 06:40:55;;;;;;;5.73;4.33;;;;;;;11.44;46.52;97807.19;6966739;28;20213;-84
2023/04/15 06:44:17;;;;;;;10.67;4.90;;;;;;;11.47;46.82;97790.53;6984015;28;20240;-81
2023/04/15 06:47:39;;;;;;;4.27;3.87;;;;;;;11.69;46.78;97809.69;6978178;28;20651;-81
2023/04/15 06:51:07;;;;;;;6.07;4.17;;;;;;;12.70;44.62;97851.25;6974497;28;20222;-79
2023/04/15 06:54:29;;;;;;;9.20;4.27;;;;;;;12.80;43.79;97848.75;6964416;28;20213;-81
2023/04/15 06:57:51;;;;;;;6.80;3.97;;;;;;;12.67;44.55;97841.75;6921862;28;20270;-79
2023/04/15 07:01:14;;;;;;;4.43;3.93;;;;;;;12.27;44.87;97851.75;6967534;28;20309;-79
2023/04/15 07:04:36;;;;;;;7.33;4.50;;;;;;;12.30;45.45;97821.56;6980527;28;20230;-80
2023/04/15 07:07:59;;;;;;;10.47;4.43;;;;;;;12.67;44.43;97841.75;6984293;28;20205;-79
2023/04/15 07:11:21;;;;;;;11.20;4.20;;;;;;;12.54;44.44;97822.28;6982850;28;20623;-80
2023/04/15 07:14:42;;;;;;;5.37;4.23;;;;;;;12.73;45.10;97835.38;6967369;28;20226;-80
2023/04/15 07:18:04;;;;;;;6.00;4.23;;;;;;;13.08;44.21;97824.38;6962377;28;20226;-80
2023/04/15 07:21:26;;;;;;;4.00;3.50;;;;;;;13.08;42.99;97817.09;6983164;28;20821;-81
2023/04/15 07:24:49;;;;;;;5.80;4.33;;;;;;;13.46;43.06;97829.91;6982578;28;20682;-79
2023/04/15 07:28:11;;;;;;;4.13;3.67;;;;;;;13.70;42.12;97834.06;6974781;28;20249;-79
2023/04/15 07:31:33;;;;;;;5.33;3.67;;;;;;;13.89;42.47;97835.44;6970789;28;20202;-80
2023/04/15 07:34:55;;;;;;;6.70;3.93;;;;;;;13.82;43.01;97835.63;6983400;28;20216;-79
2023/04/15 07:38:17;;;;;;;6.00;3.63;;;;;;;14.02;41.79;97827.78;6983458;28;20226;-79
2023/04/15 07:41:40;;;;;;;6.20;3.80;;;;;;;14.21;41.73;97831.03;6983322;28;20222;-79
2023/04/15 07:45:02;;;;;;;6.30;3.93;;;;;;;14.48;41.81;97834.63;6982644;28;20232;-80
2023/04/15 07:48:23;;;;;;;6.90;4.00;;;;;;;14.58;41.14;97810.34;6979797;28;20208;-80
2023/04/15 07:51:45;;;;;;;4.33;3.50;;;;;;;15.04;39.79;97812.44;6979561;28;20213;-79
2023/04/15 07:55:08;;;;;;;7.20;4.20;;;;;;;15.44;40.12;97829.94;6980650;28;20197;-79
2023/04/15 07:58:31;;;;;;;5.00;3.70;;;;;;;15.80;39.47;97814.72;6977180;28;20227;-80
2023/04/15 08:01:53;;;;;;;4.97;3.60;;;;;;;16.14;38.26;97827.69;6982287;28;20562;-80
2023/04/15 08:05:14;;;;;;;5.17;3.53;;;;;;;16.31;38.49;97805.75;6978560;28;20257;-79
2023/04/15 08:08:36;;;;;;;6.43;4.00;;;;;;;16.53;38.04;97811.84;6980473;28;20221;-78
2023/04/15 08:11:57;;;;;;;5.83;3.47;;;;;;;16.90;37.02;97809.78;7005485;22;20227;-85
2023/04/15 08:18:58;;;;;;;7.97;3.40;;;;;;;16.07;38.89;97808.09;6998041;28;20306;-82
2023/04/15 08:22:19;;;;;;;7.77;3.53;;;;;;;16.12;38.18;97801.84;7007733;28;20677;-85
2023/04/15 08:25:41;;;;;;;6.90;4.10;;;;;;;16.64;36.27;97808.09;7007765;28;20752;-85
2023/04/15 08:29:02;;;;;;;5.93;3.30;;;;;;;16.66;36.70;97795.84;7008669;28;20201;-83
2023/04/15 08:32:26;;;;;;;5.07;4.23;;;;;;;17.86;35.17;97804.09;6982803;28;20368;-84
2023/04/15 08:35:48;;;;;;;7.20;3.40;;;;;;;18.25;33.31;97793.34;6980544;28;20213;-84
2023/04/15 08:39:10;;;;;;;4.97;3.70;;;;;;;18.29;33.75;97805.38;6980647;28;20214;-84
2023/04/15 08:42:32;;;;;;;5.53;3.30;;;;;;;18.66;33.67;97800.31;6994192;28;20720;-84
2023/04/15 08:45:54;;;;;;;7.07;3.80;;;;;;;18.95;33.71;97802.06;7010655;28;20367;-83
2023/04/15 08:49:17;;;;;;;6.20;3.27;;;;;;;18.38;34.10;97798.25;7009456;28;20261;-84
2023/04/15 08:52:39;;;;;;;6.10;3.30;;;;;;;18.62;33.73;97805.53;6982511;28;20242;-83
2023/04/15 08:56:04;;;;;;;6.23;3.33;;;;;;;18.28;34.29;97804.53;6982320;28;20591;-85
2023/04/15 08:59:26;;;;;;;5.70;3.80;;;;;;;17.64;35.42;97809.03;6995256;28;20198;-84
2023/04/15 09:02:47;;;;;;;5.23;3.40;;;;;;;18.14;34.27;97791.75;7001854;28;20312;-84
2023/04/15 09:06:11;;;;;;;6.03;3.33;;;;;;;18.45;34.01;97806.97;6993365;28;20641;-84
2023/04/15 09:09:32;;;;;;;5.87;3.47;;;;;;;18.51;34.68;97814.84;7002464;28;20206;-84
2023/04/15 09:12:54;;;;;;;7.10;3.87;;;;;;;17.95;34.59;97775.19;6990782;28;20231;-84
2023/04/15 09:16:15;;;;;;;8.97;3.60;;;;;;;18.53;34.15;97809.94;6988708;28;20277;-84
2023/04/15 09:19:37;;;;;;;5.30;3.33;;;;;;;18.50;34.43;97744.16;6987259;28;20256;-84
2023/04/15 09:23:00;;;;;;;5.60;3.20;;;;;;;19.89;33.03;97815.28;7005096;28;20711;-84
2023/04/15 09:26:31;;;;;;;5.67;3.20;;;;;;;19.47;34.19;97815.94;7016986;28;20224;-84
2023/04/15 09:29:54;;;;;;;3.97;3.33;;;;;;;18.18;35.13;97801.03;7004583;28;20257;-84
2023/04/15 09:33:16;;;;;;;3.10;2.80;;;;;;;19.33;33.91;97819.63;7000009;28;20304;-84
2023/04/15 09:36:53;;;;;;;7.50;3.57;;;;;;;18.97;33.85;97815.44;7008111;28;20206;-84
2023/04/15 09:40:31;;;;;;;5.67;3.50;;;;;;;19.07;33.63;97802.53;6993390;28;20209;-85
2023/04/15 09:43:53;;;;;;;4.93;3.10;;;;;;;17.50;35.04;97807.97;6983302;28;20228;-83
2023/04/15 09:47:28;;;;;;;5.43;3.20;;;;;;;17.87;35.64;97829.47;6994645;28;20286;-83
2023/04/15 09:50:52;;;;;;;7.37;3.40;;;;;;;17.17;36.62;97834.91;6991887;28;20214;-84
2023/04/15 09:54:19;;;;;;;8.47;4.07;;;;;;;18.22;35.00;97740.16;6985178;28;20226;-84
2023/04/15 09:57:43;;;;;;;6.20;4.00;;;;;;;19.29;33.14;97745.53;6981618;28;20187;-84
2023/04/15 10:01:06;;;;;;;57.03;25.83;;;;;;;19.89;32.19;97809.81;6990933;28;20298;-86
2023/04/15 10:04:28;;;;;;;9.77;6.53;;;;;;;19.23;33.19;97781.41;6987763;28;20536;-84
2023/04/15 10:07:50;;;;;;;9.87;5.57;;;;;;;19.83;32.93;97827.38;6986351;28;20198;-83
2023/04/15 10:11:12;;;;;;;4.60;2.90;;;;;;;19.68;32.02;97802.91;7002063;28;20624;-83
2023/04/15 10:14:38;;;;;;;7.37;3.27;;;;;;;20.33;32.38;97819.50;7005097;28;20835;-83
2023/04/15 10:18:00;;;;;;;5.23;3.63;;;;;;;20.59;31.87;97801.69;7006239;28;20197;-83
2023/04/15 10:21:22;;;;;;;4.30;3.13;;;;;;;19.43;32.25;97735.59;7007098;28;20202;-85
2023/04/15 10:24:46;;;;;;;4.17;3.30;;;;;;;19.86;32.56;97797.53;6995053;28;20783;-84
2023/04/15 10:28:08;;;;;;;6.87;3.20;;;;;;;20.28;30.58;97797.66;6979755;28;20198;-85
2023/04/15 10:31:31;;;;;;;4.80;3.30;;;;;;;20.04;31.56;97818.69;7006076;28;20206;-83
2023/04/15 10:34:54;;;;;;;6.47;3.23;;;;;;;19.46;33.20;97836.16;7007908;28;20242;-83
2023/04/15 10:38:38;;;;;;;4.27;3.17;;;;;;;18.93;32.64;97831.56;7006273;28;20266;-83
2023/04/15 10:42:07;;;;;;;5.57;3.60;;;;;;;17.53;34.35;97823.78;7007445;28;20200;-83
2023/04/15 10:45:31;;;;;;;5.23;3.17;;;;;;;18.79;33.94;97827.00;6996399;28;20229;-85
2023/04/15 10:48:54;;;;;;;6.20;3.37;;;;;;;18.07;34.43;97851.25;6981176;28;20303;-83
2023/04/15 10:52:17;;;;;;;4.67;3.20;;;;;;;18.67;33.71;97849.19;7001073;28;20225;-83
2023/04/15 10:55:38;;;;;;;6.17;3.90;;;;;;;18.40;33.20;97796.88;6999024;28;20213;-83
2023/04/15 10:59:01;;;;;;;5.23;3.57;;;;;;;18.87;33.55;97796.38;7009141;28;20194;-83
2023/04/15 11:02:38;;;;;;;6.07;3.50;;;;;;;18.03;32.92;97847.44;7009329;28;20229;-83
2023/04/15 11:06:01;;;;;;;6.93;4.03;;;;;;;17.65;33.14;97831.66;6987955;28;20229;-83
2023/04/15 11:09:32;;;;;;;4.87;3.50;;;;;;;17.80;32.98;97846.09;6982217;28;20197;-83
2023/04/15 11:12:54;;;;;;;6.40;3.60;;;;;;;18.79;32.84;97837.94;7005096;28;20236;-84
2023/04/15 11:16:16;;;;;;;3.37;3.07;;;;;;;19.55;32.08;97826.25;7005068;28;20202;-83
2023/04/15 11:19:38;;;;;;;5.03;3.30;;;;;;;19.54;31.26;97835.56;7004928;28;20229;-83
2023/04/15 11:23:01;;;;;;;7.27;3.60;;;;;;;20.04;30.95;97842.53;7004875;28;20226;-83
2023/04/15 11:26:26;;;;;;;5.40;3.50;;;;;;;20.11;30.61;97848.50;7004701;28;20263;-83
2023/04/15 11:29:47;;;;;;;8.67;3.60;;;;;;;19.17;29.56;97826.25;7005126;28;20212;-84
2023/04/15 11:33:10;;;;;;;5.53;3.27;;;;;;;19.19;31.04;97838.53;7004911;28;20366;-83
2023/04/15 11:36:32;;;;;;;9.57;3.60;;;;;;;18.42;32.13;97871.13;7001360;28;20578;-85
2023/04/15 11:39:55;;;;;;;5.60;3.60;;;;;;;18.25;32.78;97861.56;7004620;28;20348;-82
2023/04/15 11:43:19;;;;;;;5.00;3.30;;;;;;;18.46;32.41;97852.28;7004793;28;20431;-82
2023/04/15 11:46:41;;;;;;;7.63;3.73;;;;;;;18.20;32.49;97867.03;7005018;28;20374;-83
2023/04/15 11:50:16;;;;;;;3.47;3.17;;;;;;;18.07;32.96;97873.06;7006324;28;20266;-81
2023/04/15 11:53:40;;;;;;;6.70;3.93;;;;;;;18.00;33.67;97873.38;7010157;28;20234;-82
2023/04/15 11:57:03;;;;;;;5.37;3.60;;;;;;;18.59;32.74;97836.13;7009878;28;20208;-83
2023/04/15 12:00:25;;;;;;;4.77;3.50;;;;;;;19.64;32.56;97878.44;7008767;28;20706;-82
2023/04/15 12:03:48;;;;;;;5.50;4.00;;;;;;;20.05;31.63;97879.72;7010009;28;20222;-83
2023/04/15 12:07:09;;;;;;;5.33;3.90;;;;;;;19.95;31.50;97872.44;7009368;28;20299;-82
2023/04/15 12:10:31;;;;;;;5.70;3.20;;;;;;;19.33;32.39;97846.94;6983337;28;20209;-84
2023/04/15 12:13:56;;;;;;;4.70;3.73;;;;;;;17.98;35.13;97891.09;6982037;28;20312;-81
2023/04/15 12:17:18;;;;;;;4.67;3.50;;;;;;;18.19;34.76;97900.88;7006274;28;20674;-81
2023/04/15 12:20:44;;;;;;;3.50;3.10;;;;;;;17.04;34.88;97917.13;7009452;28;20356;-83
2023/04/15 12:24:07;;;;;;;6.90;3.80;;;;;;;17.08;35.15;97912.75;7011175;28;20256;-83
2023/04/15 12:27:28;;;;;;;6.83;3.40;;;;;;;17.94;35.64;97918.09;7036895;28;20206;-85
2023/04/15 12:30:51;;;;;;;5.47;2.90;;;;;;;18.28;34.50;97912.88;7004761;28;20784;-85
2023/04/15 12:34:14;;;;;;;5.37;3.30;;;;;;;17.88;34.04;97932.00;6996894;28;20287;-84
2023/04/15 12:37:36;;;;;;;4.17;3.27;;;;;;;18.16;34.41;97948.63;7005912;28;20259;-83
2023/04/15 12:40:58;;;;;;;4.27;3.07;;;;;;;17.26;33.60;97925.88;7000041;28;20293;-82
2023/04/15 12:44:23;;;;;;;5.60;3.00;;;;;;;16.76;36.26;97958.38;6983876;28;20260;-82
2023/04/15 12:47:46;;;;;;;3.97;2.97;;;;;;;17.01;35.78;97980.28;7008511;28;20263;-81
2023/04/15 12:51:07;;;;;;;4.30;2.80;;;;;;;17.20;33.70;97971.38;7008152;28;20237;-83
2023/04/15 12:54:30;;;;;;;4.07;2.97;;;;;;;16.48;38.13;98005.03;7006166;28;20292;-83
2023/04/15 12:57:51;;;;;;;4.70;3.30;;;;;;;15.76;41.05;98014.72;7003458;28;20200;-82
2023/04/15 13:01:13;;;;;;;5.10;3.43;;;;;;;15.84;41.60;98019.69;7007454;28;20250;-83
2023/04/15 13:04:36;;;;;;;2.97;2.77;;;;;;;16.65;41.87;98017.41;7006210;28;20222;-82
2023/04/15 13:07:57;;;;;;;3.83;2.60;;;;;;;16.32;39.78;98016.84;6983651;28;20228;-81
2023/04/15 13:11:19;;;;;;;4.43;3.33;;;;;;;16.39;39.52;98012.03;6987738;28;20216;-82
2023/04/15 13:14:40;;;;;;;2.77;2.43;;;;;;;16.74;36.70;97961.38;6990033;28;20245;-80
2023/04/15 13:18:02;;;;;;;3.60;2.70;;;;;;;17.16;35.77;98007.59;6985288;28;20236;-83
2023/04/15 13:21:26;;;;;;;3.27;2.50;;;;;;;17.17;33.86;98007.31;7003973;28;20223;-81
2023/04/15 13:24:47;;;;;;;2.30;2.10;;;;;;;17.58;32.83;97994.69;7005219;28;20705;-80
2023/04/15 13:28:11;;;;;;;3.37;2.10;;;;;;;17.10;33.14;97992.31;7007579;28;20243;-81
2023/04/15 13:31:32;;;;;;;4.00;2.57;;;;;;;17.76;33.34;98018.72;7006619;28;20204;-81
2023/04/15 13:34:55;;;;;;;4.27;2.60;;;;;;;18.05;31.97;98006.19;7006446;28;20321;-83
2023/04/15 13:38:18;;;;;;;2.37;2.20;;;;;;;18.29;31.75;98023.66;7007558;28;20209;-82
2023/04/15 13:41:40;;;;;;;4.77;3.53;;;;;;;17.76;31.37;97937.72;7007032;28;20203;-81
2023/04/15 13:45:01;;;;;;;8.17;5.70;;;;;;;18.39;30.90;98023.72;7002477;28;20236;-81
2023/04/15 13:48:23;;;;;;;4.07;2.60;;;;;;;17.44;29.96;98018.06;7006746;28;20216;-81
2023/04/15 13:51:44;;;;;;;2.83;2.47;;;;;;;17.84;31.11;98034.53;7006498;28;20206;-83
2023/04/15 13:55:08;;;;;;;2.37;2.17;;;;;;;17.45;29.51;98041.53;7006537;28;20233;-80
2023/04/15 13:58:30;;;;;;;2.00;1.80;;;;;;;16.34;29.93;98020.94;7007552;28;20280;-80
2023/04/15 14:01:51;;;;;;;3.17;2.10;;;;;;;16.76;30.02;98012.81;7006383;28;20433;-81
2023/04/15 14:05:13;;;;;;;3.30;1.93;;;;;;;16.59;30.30;98040.22;7011871;28;20240;-82
2023/04/15 14:08:35;;;;;;;2.83;1.70;;;;;;;16.99;29.21;98042.38;7005216;28;20518;-81
2023/04/15 14:11:58;;;;;;;1.67;1.57;;;;;;;16.40;28.99;98047.13;7003912;28;20213;-81
2023/04/15 14:15:21;;;;;;;2.03;1.77;;;;;;;16.65;29.65;98047.34;7004240;28;20217;-81
2023/04/15 14:18:43;;;;;;;3.97;3.10;;;;;;;17.13;29.23;98046.25;7004970;28;20735;-82
2023/04/15 14:22:05;;;;;;;3.03;1.80;;;;;;;16.90;28.72;98031.16;7004893;28;20714;-82
2023/04/15 14:25:26;;;;;;;1.83;1.73;;;;;;;16.48;29.53;98049.38;7006059;28;20724;-83
2023/04/15 14:28:49;;;;;;;1.93;1.60;;;;;;;17.00;29.71;98049.44;7006381;28;20210;-83
2023/04/15 14:32:11;;;;;;;1.87;1.60;;;;;;;16.79;30.21;98050.41;7005507;28;20304;-82
2023/04/15 14:35:32;;;;;;;2.13;1.97;;;;;;;16.33;31.16;98051.13;7006310;28;20272;-82
2023/04/15 14:38:54;;;;;;;1.87;1.77;;;;;;;16.25;31.33;98033.38;7002714;28;20287;-83
2023/04/15 14:42:16;;;;;;;2.70;2.03;;;;;;;16.67;32.24;98086.00;7001878;28;20206;-82
2023/04/15 14:45:39;;;;;;;3.07;2.40;;;;;;;15.51;32.23;97992.72;7011044;28;20317;-83
2023/04/15 14:49:00;;;;;;;3.13;2.50;;;;;;;16.43;32.69;98068.38;6997199;28;20215;-82
2023/04/15 14:52:22;;;;;;;3.97;2.97;;;;;;;16.76;32.90;98091.78;7018916;28;20350;-83
2023/04/15 14:55:44;;;;;;;3.03;2.40;;;;;;;16.74;32.71;98088.50;7007292;28;20283;-81
2023/04/15 14:59:06;;;;;;;2.13;2.00;;;;;;;16.64;32.31;98078.34;7009839;28;20201;-83
2023/04/15 15:02:29;;;;;;;4.40;2.87;;;;;;;16.58;33.05;98060.31;7010575;28;20220;-82
2023/04/15 15:05:50;;;;;;;2.90;1.90;;;;;;;16.31;33.86;98103.06;7015479;28;20232;-81
2023/04/15 15:09:12;;;;;;;3.53;2.00;;;;;;;16.06;34.61;98111.00;6986901;28;20654;-82
2023/04/15 15:12:34;;;;;;;2.17;1.97;;;;;;;16.45;34.69;98123.34;6979250;28;20230;-80
2023/04/15 15:15:55;;;;;;;3.63;2.63;;;;;;;16.72;33.78;98124.16;6981625;28;20231;-83
2023/04/15 15:19:18;;;;;;;4.07;2.77;;;;;;;16.46;34.97;98141.31;6978428;28;20294;-81
2023/04/15 15:22:40;;;;;;;5.40;2.30;;;;;;;16.03;35.50;98146.00;6983855;28;20230;-83
2023/04/15 15:26:01;;;;;;;3.27;2.50;;;;;;;16.36;36.09;98152.09;6995722;28;20317;-82
2023/04/15 15:29:23;;;;;;;3.20;2.60;;;;;;;16.16;36.55;98157.31;7008548;28;20215;-82
2023/04/15 15:32:44;;;;;;;3.93;2.60;;;;;;;16.51;36.60;98151.47;6997568;28;20356;-82
2023/04/15 15:36:07;;;;;;;2.30;2.10;;;;;;;15.84;37.83;98156.44;7001515;28;20239;-83
2023/04/15 15:39:29;;;;;;;5.47;2.20;;;;;;;15.82;36.86;98163.19;7011599;28;20212;-83
2023/04/15 15:42:50;;;;;;;3.13;2.13;;;;;;;15.44;37.14;98169.50;7012696;28;20226;-84
2023/04/15 15:46:12;;;;;;;2.57;2.37;;;;;;;16.13;37.27;98171.44;7012037;28;20246;-84
2023/04/15 15:49:33;;;;;;;3.47;2.33;;;;;;;15.83;37.18;98154.78;7002131;28;20340;-84
2023/04/15 15:52:57;;;;;;;2.60;2.20;;;;;;;15.72;38.10;98187.53;6987817;28;20234;-82
2023/04/15 15:56:18;;;;;;;2.27;2.07;;;;;;;15.63;38.81;98187.13;7010576;28;20222;-83
2023/04/15 15:59:42;;;;;;;5.03;2.20;;;;;;;15.69;39.57;98177.16;7008607;28;20209;-83
2023/04/15 16:03:04;;;;;;;3.20;2.43;;;;;;;15.49;40.45;98202.16;7007107;28;20716;-85
2023/04/15 16:06:26;;;;;;;3.37;2.60;;;;;;;15.70;41.04;98217.66;7012709;28;20219;-84
2023/04/15 16:09:49;;;;;;;2.77;2.40;;;;;;;14.08;42.62;98127.63;7012974;28;20263;-84
2023/04/15 16:13:11;;;;;;;3.90;2.97;;;;;;;14.88;44.61;98163.47;7010146;28;20249;-83
2023/04/15 16:16:33;;;;;;;3.90;2.87;;;;;;;14.51;45.86;98232.84;7013327;28;20216;-83
2023/04/15 16:19:55;;;;;;;4.27;2.83;;;;;;;14.50;48.42;98240.16;7015052;28;20733;-83
2023/04/15 16:23:17;;;;;;;3.53;2.70;;;;;;;14.10;51.01;98260.22;7011209;28;20245;-85
2023/04/15 16:26:40;;;;;;;4.10;2.80;;;;;;;13.55;51.93;98159.66;7004085;28;20250;-87
2023/04/15 16:30:01;;;;;;;3.20;2.90;;;;;;;13.76;53.29;98245.69;7010093;28;20222;-84
2023/04/15 16:33:23;;;;;;;3.20;2.90;;;;;;;13.76;54.01;98267.34;7001383;28;20810;-82
2023/04/15 16:36:44;;;;;;;4.40;3.20;;;;;;;14.31;53.09;98260.41;7004046;28;20293;-88
2023/04/15 16:40:07;;;;;;;4.90;3.03;;;;;;;14.27;53.53;98231.31;7006649;28;20195;-84
2023/04/15 16:43:30;;;;;;;3.60;3.20;;;;;;;14.40;54.33;98287.97;7010926;28;20227;-85
2023/04/15 16:46:52;;;;;;;4.33;3.53;;;;;;;14.83;53.86;98278.22;7012344;28;20274;-85
2023/04/15 16:50:13;;;;;;;4.07;3.43;;;;;;;14.63;52.89;98271.59;7011713;28;20208;-84
2023/04/15 16:53:35;;;;;;;4.33;3.70;;;;;;;13.81;55.32;98213.28;7000120;28;20223;-84
2023/04/15 16:56:57;;;;;;;4.03;3.70;;;;;;;14.27;54.80;98234.03;6985432;28;20217;-84
2023/04/15 17:00:21;;;;;;;5.13;3.90;;;;;;;14.74;54.75;98287.00;6989295;28;20200;-86
2023/04/15 17:03:43;;;;;;;4.43;4.00;;;;;;;14.41;55.77;98300.47;7006782;28;20596;-86
2023/04/15 17:07:05;;;;;;;3.70;3.40;;;;;;;13.56;56.77;98245.25;7007812;28;20237;-89
2023/04/15 17:10:26;;;;;;;5.40;3.90;;;;;;;13.97;57.11;98296.53;7004884;28;20210;-86
2023/04/15 17:13:48;;;;;;;4.43;3.97;;;;;;;14.42;56.70;98302.09;7007101;28;20280;-87
2023/04/15 17:17:11;;;;;;;4.83;4.23;;;;;;;14.17;56.57;98256.28;7008040;28;20206;-86
2023/04/15 17:20:32;;;;;;;5.93;5.20;;;;;;;14.27;56.96;98290.97;7007796;28;20256;-86
2023/04/15 17:23:54;;;;;;;5.27;4.77;;;;;;;14.03;57.68;98319.16;7016350;28;20247;-86
2023/04/15 17:27:16;;;;;;;6.20;5.20;;;;;;;13.70;58.67;98275.63;7018857;28;20246;-87
2023/04/15 17:30:37;;;;;;;6.93;5.20;;;;;;;13.59;59.50;98336.03;7015929;28;20207;-86
2023/04/15 17:34:00;;;;;;;7.23;5.83;;;;;;;13.76;59.95;98350.53;7007157;28;20230;-85
2023/04/15 17:37:22;;;;;;;6.97;5.30;;;;;;;13.79;59.50;98359.00;7007227;28;20203;-87
2023/04/15 17:40:43;;;;;;;5.90;5.03;;;;;;;13.51;59.70;98348.06;6999454;28;20371;-86
2023/04/15 17:44:05;;;;;;;5.23;4.60;;;;;;;13.67;59.70;98368.19;6990235;28;20238;-85
2023/04/15 17:47:27;;;;;;;3.83;3.47;;;;;;;13.97;58.85;98385.16;7004356;28;20311;-86
2023/04/15 17:50:50;;;;;;;3.00;2.80;;;;;;;13.97;57.85;98379.72;7007455;28;20211;-86
2023/04/15 17:54:12;;;;;;;3.40;2.90;;;;;;;13.78;57.51;98365.50;7005323;28;20360;-86
2023/04/15 17:57:40;;;;;;;2.60;2.40;;;;;;;13.62;58.05;98373.50;6980762;28;20202;-86
2023/04/15 18:01:01;;;;;;;2.77;2.57;;;;;;;13.59;58.42;98382.94;6999127;28;20306;-86
2023/04/15 18:04:23;;;;;;;2.50;2.30;;;;;;;13.66;56.99;98394.47;7007048;28;20314;-83